.
WxDataArchive / Data Records for 2015-04-21
2015-04-20 April 2015 2015-04-22

Data Records for Tuesday, 21 April 2015

Time	Temp	Chill	HIndex	Humid	Dewpt	 Wind 	HiWind	WindDir	Rain 	Barom
-----	----	-----	------	-----	-----	------	------	-------	-----	-----
00:00	44.8	44.8	44.8	65	33.8	1	5	248	0.00	29.643 
00:05	44.8	44.8	44.8	66	34.1	2	6	248	0.00	29.643 
00:10	44.9	44.9	44.9	66	34.2	1	4	248	0.00	29.643 
00:15	44.9	44.9	44.9	66	34.2	2	6	248	0.00	29.645 
00:20	45.1	45.1	45.1	66	34.4	1	3	248	0.00	29.645 
00:25	45.1	45.1	45.1	66	34.4	0	4	248	0.00	29.645 
00:30	44.9	44.9	44.9	66	34.2	1	3	248	0.00	29.645 
00:35	44.9	44.9	44.9	66	34.2	2	5	248	0.00	29.645 
00:40	44.8	44.8	44.8	66	34.1	1	5	248	0.00	29.645 
00:45	44.8	44.8	44.8	66	34.1	1	5	248	0.00	29.646 
00:50	44.6	44.6	44.6	67	34.3	1	3	225	0.00	29.646 
00:55	44.6	44.6	44.6	66	34.0	1	4	225	0.00	29.646 
01:00	44.8	44.8	44.8	66	34.1	1	4	248	0.00	29.645 
01:05	44.8	44.8	44.8	66	34.1	1	4	248	0.00	29.645 
01:10	44.8	44.8	44.8	66	34.1	1	4	225	0.00	29.645 
01:15	44.6	44.6	44.6	66	34.0	1	4	248	0.00	29.646 
01:20	44.5	44.5	44.5	67	34.2	1	4	248	0.00	29.646 
01:25	44.3	44.3	44.3	67	34.0	1	3	248	0.00	29.646 
01:30	44.2	44.2	44.2	67	33.9	0	3	248	0.00	29.648 
01:35	44.1	44.1	44.1	67	33.9	1	3	248	0.00	29.648 
01:40	44.2	44.2	44.2	67	33.9	2	5	248	0.00	29.648 
01:45	44.2	44.2	44.2	67	33.9	1	5	225	0.00	29.649 
01:50	44.2	44.2	44.2	67	33.9	1	4	248	0.00	29.649 
01:55	44.2	44.2	44.2	67	33.9	1	5	248	0.00	29.649 
02:00	44.2	44.2	44.2	68	34.3	1	3	248	0.00	29.647 
02:05	44.1	44.1	44.1	68	34.2	1	5	248	0.00	29.647 
02:10	44.1	44.1	44.1	69	34.6	1	5	225	0.00	29.647 
02:15	44.1	44.1	44.1	69	34.6	1	4	225	0.00	29.646 
02:20	44.1	44.1	44.1	69	34.6	1	4	248	0.00	29.646 
02:25	44.1	44.1	44.1	69	34.6	1	5	270	0.00	29.646 
02:30	43.9	43.9	43.9	69	34.4	1	3	270	0.00	29.645 
02:35	43.9	43.9	43.9	69	34.4	1	3	270	0.00	29.645 
02:40	43.8	43.8	43.8	69	34.3	1	4	270	0.00	29.645 
02:45	43.8	43.8	43.8	70	34.7	1	3	248	0.00	29.646 
02:50	43.6	43.6	43.6	71	34.8	1	4	248	0.00	29.646 
02:55	43.5	43.5	43.5	71	34.7	1	3	248	0.00	29.646 
03:00	43.3	43.3	43.3	72	34.9	1	5	248	0.00	29.645 
03:05	43.2	43.2	43.2	72	34.8	1	4	248	0.00	29.645 
03:10	43.2	43.2	43.2	72	34.8	1	3	248	0.00	29.645 
03:15	43.1	43.1	43.1	73	35.0	1	3	248	0.00	29.646 
03:20	43.1	43.1	43.1	73	35.0	1	3	248	0.00	29.646 
03:25	43.1	43.1	43.1	73	35.0	0	2	248	0.00	29.646 
03:30	43.1	43.1	43.1	73	35.0	0	2	248	0.00	29.647 
03:35	42.9	42.9	42.9	73	34.9	0	2	248	0.00	29.647 
03:40	42.9	42.9	42.9	73	34.9	0	1	248	0.00	29.647 
03:45	42.9	42.9	42.9	73	34.9	1	3	248	0.00	29.644 
03:50	42.9	42.9	42.9	73	34.9	1	4	248	0.00	29.644 
03:55	42.9	42.9	42.9	73	34.9	1	3	248	0.00	29.644 
04:00	42.9	42.9	42.9	73	34.9	1	3	248	0.00	29.646 
04:05	42.9	42.9	42.9	73	34.9	1	4	248	0.00	29.646 
04:10	42.8	42.8	42.8	73	34.8	0	2	248	0.00	29.646 
04:15	42.6	42.6	42.6	73	34.6	0	4	45	0.00	29.640 
04:20	42.5	42.5	42.5	73	34.5	0	2	22	0.00	29.640 
04:25	42.5	42.5	42.5	74	34.8	1	3	22	0.00	29.640 
04:30	42.3	42.3	42.3	74	34.6	0	3	248	0.00	29.637 
04:35	42.2	42.2	42.2	74	34.5	0	2	248	0.00	29.637 
04:40	42.1	42.1	42.1	74	34.4	0	2	248	0.00	29.637 
04:45	41.9	41.9	41.9	75	34.6	0	2	248	0.00	29.634 
04:50	41.8	41.8	41.8	75	34.5	1	2	248	0.00	29.634 
04:55	41.8	41.8	41.8	75	34.5	1	3	248	0.00	29.634 
05:00	41.8	41.8	41.8	75	34.5	0	2	248	0.00	29.633 
05:05	41.8	41.8	41.8	76	34.8	0	3	248	0.00	29.633 
05:10	41.6	41.6	41.6	76	34.6	1	4	248	0.00	29.633 
05:15	41.5	41.5	41.5	76	34.5	0	2	248	0.00	29.633 
05:20	41.3	41.3	41.3	77	34.6	0	2	248	0.00	29.633 
05:25	41.1	41.1	41.1	77	34.4	0	1	248	0.00	29.633 
05:30	40.9	40.9	40.9	77	34.3	0	2	248	0.00	29.629 
05:35	40.6	40.6	40.6	78	34.3	0	1	248	0.00	29.629 
05:40	40.5	40.5	40.5	78	34.2	0	2	248	0.00	29.629 
05:45	40.3	40.3	40.3	79	34.3	0	1	248	0.00	29.633 
05:50	40.2	40.2	40.2	79	34.2	0	2	248	0.00	29.633 
05:55	40.1	40.1	40.1	80	34.4	0	2	248	0.00	29.633 
06:00	40.1	40.1	40.1	80	34.4	0	3	248	0.00	29.628 
06:05	40.1	40.1	40.1	80	34.4	0	2	248	0.00	29.628 
06:10	40.1	40.1	40.1	81	34.7	1	3	248	0.00	29.628 
06:15	40.2	40.2	40.2	80	34.5	1	5	248	0.00	29.633 
06:20	40.3	40.3	40.3	80	34.6	1	3	248	0.00	29.633 
06:25	40.5	40.5	40.5	79	34.5	1	3	248	0.00	29.633 
06:30	40.6	40.6	40.6	79	34.6	1	5	248	0.00	29.633 
06:35	40.8	40.8	40.8	78	34.5	2	4	248	0.00	29.633 
06:40	40.9	40.9	40.9	77	34.3	1	4	270	0.00	29.633 
06:45	41.1	41.1	41.1	76	34.1	1	7	270	0.00	29.633 
06:50	41.2	41.2	41.2	76	34.2	1	6	248	0.00	29.633 
06:55	41.2	41.2	41.2	75	33.9	1	4	248	0.00	29.633 
07:00	41.2	41.2	41.2	74	33.6	1	6	248	0.00	29.637 
07:05	41.2	41.2	41.2	74	33.6	1	7	248	0.00	29.637 
07:10	41.3	41.3	41.3	74	33.6	1	4	248	0.00	29.637 
07:15	41.3	41.3	41.3	74	33.6	1	5	248	0.00	29.642 
07:20	41.5	41.5	41.5	73	33.5	1	7	248	0.00	29.642 
07:25	41.6	41.6	41.6	73	33.6	1	5	248	0.00	29.642 
07:30	41.8	41.8	41.8	72	33.4	2	7	248	0.00	29.644 
07:35	42.1	42.1	42.1	72	33.7	1	5	248	0.00	29.644 
07:40	42.2	42.2	42.2	71	33.5	1	4	248	0.00	29.644 
07:45	42.5	42.5	42.5	70	33.4	2	6	248	0.00	29.643 
07:50	42.8	42.8	42.8	69	33.3	2	5	248	0.00	29.643 
07:55	42.9	42.9	42.9	69	33.4	2	4	248	0.00	29.643 
08:00	43.2	43.2	43.2	68	33.4	2	6	248	0.00	29.641 
08:05	43.3	43.3	43.3	68	33.5	1	5	270	0.00	29.641 
08:10	43.6	43.6	43.6	67	33.4	1	4	248	0.00	29.641 
08:15	43.8	43.8	43.8	66	33.2	1	5	248	0.00	29.645 
08:20	44.1	44.1	44.1	66	33.5	1	5	248	0.00	29.645 
08:25	44.2	44.2	44.2	65	33.2	1	6	248	0.00	29.645 
08:30	44.5	44.5	44.5	64	33.1	1	5	248	0.00	29.645 
08:35	44.8	44.8	44.8	62	32.6	2	7	248	0.00	29.645 
08:40	45.1	45.1	45.1	62	32.9	2	5	248	0.00	29.645 
08:45	45.4	45.4	45.4	61	32.7	2	7	248	0.00	29.649 
08:50	45.5	45.5	45.5	60	32.4	2	6	248	0.00	29.649 
08:55	45.7	45.7	45.7	60	32.6	2	6	248	0.00	29.649 
09:00	46.0	46.0	46.0	58	32.1	2	6	248	0.00	29.640 
09:05	46.1	46.1	46.1	55	30.8	2	7	248	0.00	29.640 
09:10	46.4	46.4	46.4	53	30.2	3	10	248	0.00	29.640 
09:15	46.7	46.7	46.7	54	30.9	2	4	248	0.00	29.647 
09:20	47.1	47.1	47.1	52	30.4	2	7	270	0.00	29.647 
09:25	47.4	47.4	47.4	50	29.7	2	6	248	0.00	29.647 
09:30	47.7	47.7	47.7	49	29.5	2	6	270	0.00	29.650 
09:35	47.9	47.9	47.9	46	28.1	3	7	270	0.00	29.650 
09:40	48.0	48.0	48.0	48	29.3	3	9	248	0.00	29.650 
09:45	48.0	48.0	48.0	48	29.3	3	7	248	0.00	29.649 
09:50	48.0	45.9	48.0	46	28.2	5	10	248	0.00	29.649 
09:55	48.0	46.6	48.0	49	29.8	4	10	248	0.00	29.649 
10:00	48.2	48.2	48.2	48	29.4	3	9	248	0.00	29.649 
10:05	48.3	48.3	48.3	49	30.0	3	9	270	0.00	29.649 
10:10	48.6	48.6	48.6	49	30.3	3	10	270	0.00	29.649 
10:15	48.5	47.1	48.5	49	30.2	4	10	248	0.00	29.649 
10:20	48.6	48.6	48.6	50	30.8	3	9	248	0.00	29.649 
10:25	48.6	47.3	48.6	48	29.8	4	13	270	0.00	29.649 
10:30	48.8	48.8	48.8	50	31.0	3	9	248	0.00	29.649 
10:35	49.5	49.5	49.5	48	30.6	3	9	248	0.00	29.649 
10:40	49.5	48.3	49.5	48	30.6	4	14	248	0.00	29.649 
10:45	49.4	48.2	49.4	49	31.0	4	11	248	0.00	29.647 
10:50	49.5	49.5	49.5	48	30.6	3	10	248	0.00	29.647 
10:55	50.1	50.1	50.1	47	30.7	3	9	248	0.00	29.647 
11:00	50.1	50.1	50.1	46	30.1	3	9	270	0.00	29.644 
11:05	50.4	50.4	50.4	47	30.9	2	6	248	0.00	29.644 
11:10	51.0	51.0	51.0	47	31.5	2	5	248	0.00	29.644 
11:15	51.1	51.1	51.1	47	31.6	3	6	248	0.00	29.642 
11:20	51.1	51.1	51.1	46	31.0	3	9	248	0.00	29.642 
11:25	51.1	51.1	51.1	45	30.5	4	9	248	0.00	29.642 
11:30	51.1	51.1	51.1	45	30.5	4	9	248	0.00	29.641 
11:35	51.4	51.4	51.4	47	31.9	3	6	248	0.00	29.641 
11:40	51.9	51.9	51.9	45	31.2	4	8	248	0.00	29.641 
11:45	52.3	52.3	52.3	45	31.6	3	10	248	0.00	29.632 
11:50	52.5	52.5	52.5	42	30.1	5	12	248	0.00	29.632 
11:55	52.0	52.0	52.0	43	30.2	5	13	248	0.00	29.632 
12:00	52.0	52.0	52.0	43	30.2	4	16	248	0.00	29.632 
12:05	52.0	52.0	52.0	42	29.6	5	14	248	0.00	29.632 
12:10	52.0	52.0	52.0	43	30.2	3	7	248	0.00	29.632 
12:15	52.3	52.3	52.3	39	28.1	5	13	248	0.00	29.633 
12:20	52.5	52.5	52.5	41	29.5	4	10	270	0.00	29.633 
12:25	52.6	52.6	52.6	41	29.6	4	9	270	0.00	29.633 
12:30	53.2	53.2	53.2	36	26.9	6	14	248	0.00	29.637 
12:35	53.3	53.3	53.3	35	26.4	5	12	248	0.00	29.637 
12:40	53.2	53.2	53.2	35	26.3	6	13	248	0.00	29.637 
12:45	52.9	52.9	52.9	38	28.0	5	10	248	0.00	29.630 
12:50	53.6	53.6	53.6	39	29.3	5	12	248	0.00	29.630 
12:55	53.6	53.6	53.6	34	25.9	6	13	270	0.00	29.630 
13:00	53.1	53.1	53.1	34	25.5	5	13	248	0.00	29.632 
13:05	52.2	52.2	52.2	39	28.0	5	11	270	0.00	29.632 
13:10	51.7	51.7	51.7	37	26.3	5	15	248	0.00	29.632 
13:15	52.3	52.3	52.3	38	27.5	5	13	270	0.00	29.632 
13:20	52.5	52.5	52.5	37	27.0	5	15	270	0.00	29.632 
13:25	52.3	52.3	52.3	35	25.5	6	11	270	0.00	29.632 
13:30	52.8	52.8	52.8	38	27.9	5	12	270	0.00	29.633 
13:35	53.3	53.3	53.3	36	27.0	5	15	248	0.00	29.633 
13:40	53.9	53.9	53.9	35	26.9	6	13	248	0.00	29.633 
13:45	54.4	54.4	54.4	35	27.3	5	10	270	0.00	29.631 
13:50	53.8	53.8	53.8	33	25.4	6	15	270	0.00	29.631 
13:55	53.1	53.1	53.1	32	24.0	6	11	270	0.00	29.631 
14:00	53.8	53.8	53.8	32	24.6	4	14	248	0.00	29.634 
14:05	54.2	54.2	54.2	32	25.0	6	12	248	0.00	29.634 
14:10	53.9	53.9	53.9	29	22.4	5	15	248	0.00	29.634 
14:15	54.1	54.1	54.1	30	23.4	5	12	270	0.00	29.637 
14:20	53.6	53.6	53.6	28	21.3	7	13	270	0.00	29.637 
14:25	53.2	53.2	53.2	33	24.9	5	14	270	0.00	29.637 
14:30	53.3	53.3	53.3	29	21.9	6	14	270	0.00	29.638 
14:35	53.8	53.8	53.8	29	22.3	6	11	270	0.00	29.638 
14:40	54.5	54.5	54.5	29	22.9	5	13	248	0.00	29.638 
14:45	54.2	54.2	54.2	28	21.8	5	11	270	0.00	29.633 
14:50	54.2	54.2	54.2	30	23.5	5	12	270	0.00	29.633 
14:55	54.1	54.1	54.1	30	23.4	6	15	248	0.00	29.633 
15:00	54.5	54.5	54.5	30	23.7	6	11	248	0.00	29.634 
15:05	54.8	54.8	54.8	29	23.2	5	12	248	0.00	29.634 
15:10	55.3	55.3	55.3	28	22.8	5	14	270	0.00	29.634 
15:15	54.7	54.7	54.7	28	22.2	6	17	248	0.00	29.632 
15:20	54.8	54.8	54.8	28	22.3	5	17	248	0.00	29.632 
15:25	55.3	55.3	55.3	27	21.9	5	12	248	0.00	29.632 
15:30	55.4	55.4	55.4	27	22.0	5	13	248	0.00	29.631 
15:35	54.8	54.8	54.8	28	22.3	5	11	270	0.00	29.631 
15:40	54.7	54.7	54.7	28	22.2	5	13	270	0.00	29.631 
15:45	54.7	54.7	54.7	27	21.4	5	10	270	0.00	29.629 
15:50	55.3	55.3	55.3	30	24.4	4	9	248	0.00	29.629 
15:55	55.6	55.6	55.6	27	22.2	4	11	248	0.00	29.629 
16:00	55.3	55.3	55.3	27	21.9	4	11	270	0.00	29.629 
16:05	55.0	55.0	55.0	28	22.5	5	15	270	0.00	29.629 
16:10	54.2	54.2	54.2	28	21.8	4	11	270	0.00	29.629 
16:15	55.0	55.0	55.0	28	22.5	3	10	270	0.00	29.630 
16:20	55.3	55.3	55.3	27	21.9	5	10	248	0.00	29.630 
16:25	55.4	55.4	55.4	28	22.8	4	11	248	0.00	29.630 
16:30	55.7	55.7	55.7	28	23.1	5	10	270	0.00	29.623 
16:35	55.7	55.7	55.7	26	21.4	7	14	270	0.00	29.623 
16:40	55.4	55.4	55.4	28	22.8	7	12	270	0.00	29.623 
16:45	55.3	55.3	55.3	27	21.9	5	11	270	0.00	29.624 
16:50	55.3	55.3	55.3	28	22.8	4	12	270	0.00	29.624 
16:55	55.4	55.4	55.4	27	22.0	5	10	270	0.00	29.624 
17:00	55.6	55.6	55.6	28	23.0	4	9	270	0.00	29.618 
17:05	55.3	55.3	55.3	27	21.9	5	11	248	0.00	29.618 
17:10	54.7	54.7	54.7	27	21.4	5	12	270	0.00	29.618 
17:15	54.8	54.8	54.8	28	22.3	4	7	270	0.00	29.619 
17:20	55.1	55.1	55.1	28	22.6	3	10	248	0.00	29.619 
17:25	55.0	55.0	55.0	27	21.6	4	10	248	0.00	29.619 
17:30	55.0	55.0	55.0	27	21.6	3	7	248	0.00	29.624 
17:35	55.0	55.0	55.0	28	22.5	3	11	248	0.00	29.624 
17:40	54.8	54.8	54.8	28	22.3	4	12	248	0.00	29.624 
17:45	54.5	54.5	54.5	28	22.1	5	10	270	0.00	29.621 
17:50	54.5	54.5	54.5	27	21.2	4	10	270	0.00	29.621 
17:55	54.5	54.5	54.5	28	22.1	3	7	248	0.00	29.621 
18:00	54.4	54.4	54.4	29	22.8	5	10	248	0.00	29.635 
18:05	54.1	54.1	54.1	29	22.6	4	9	270	0.00	29.635 
18:10	54.2	54.2	54.2	30	23.5	3	11	248	0.00	29.635 
18:15	54.2	54.2	54.2	30	23.5	4	10	248	0.00	29.633 
18:20	53.9	53.9	53.9	30	23.2	5	11	270	0.00	29.633 
18:25	53.8	53.8	53.8	31	23.9	3	10	270	0.00	29.633 
18:30	54.1	54.1	54.1	31	24.1	2	5	248	0.00	29.631 
18:35	54.5	54.5	54.5	31	24.5	2	7	248	0.00	29.631 
18:40	54.8	54.8	54.8	29	23.2	4	11	248	0.00	29.631 
18:45	54.8	54.8	54.8	29	23.2	3	11	248	0.00	29.627 
18:50	54.4	54.4	54.4	30	23.6	3	6	248	0.00	29.627 
18:55	54.1	54.1	54.1	31	24.1	3	7	248	0.00	29.627 
19:00	53.8	53.8	53.8	30	23.1	4	10	248	0.00	29.634 
19:05	53.6	53.6	53.6	31	23.7	3	9	248	0.00	29.634 
19:10	53.6	53.6	53.6	31	23.7	4	14	248	0.00	29.634 
19:15	53.5	53.5	53.5	33	25.1	4	14	248	0.00	29.645 
19:20	53.2	53.2	53.2	34	25.6	5	10	270	0.00	29.645 
19:25	52.8	52.8	52.8	36	26.6	4	10	270	0.00	29.645 
19:30	52.5	52.5	52.5	37	27.0	4	12	270	0.00	29.642 
19:35	52.2	52.2	52.2	38	27.4	4	13	270	0.00	29.642 
19:40	51.9	51.9	51.9	39	27.7	4	9	270	0.00	29.642 
19:45	51.7	51.7	51.7	38	26.9	4	7	270	0.00	29.649 
19:50	51.9	51.9	51.9	39	27.7	3	7	270	0.00	29.649 
19:55	51.9	51.9	51.9	37	26.5	3	10	248	0.00	29.649 
20:00	51.9	51.9	51.9	38	27.1	2	6	270	0.00	29.646 
20:05	51.9	51.9	51.9	38	27.1	2	4	248	0.00	29.646 
20:10	51.9	51.9	51.9	38	27.1	3	7	270	0.00	29.646 
20:15	51.7	51.7	51.7	38	26.9	3	6	270	0.00	29.648 
20:20	51.6	51.6	51.6	38	26.8	3	6	270	0.00	29.648 
20:25	51.6	51.6	51.6	39	27.5	2	4	248	0.00	29.648 
20:30	51.4	51.4	51.4	39	27.3	2	5	248	0.00	29.650 
20:35	51.3	51.3	51.3	39	27.2	3	7	292	0.00	29.650 
20:40	51.0	51.0	51.0	41	28.1	4	10	270	0.00	29.650 
20:45	50.7	50.7	50.7	43	29.0	4	10	270	0.00	29.656 
20:50	50.4	50.4	50.4	43	28.8	4	9	270	0.00	29.656 
20:55	50.4	50.4	50.4	43	28.8	3	8	270	0.00	29.656 
21:00	50.4	50.4	50.4	44	29.3	3	7	270	0.00	29.664 
21:05	50.1	50.1	50.1	48	31.2	4	16	270	0.00	29.664 
21:10	48.8	45.7	48.8	53	32.4	7	14	270	0.00	29.664 
21:15	48.0	46.6	48.0	57	33.5	4	11	248	0.00	29.679 
21:20	47.6	47.6	47.6	58	33.6	2	5	248	0.00	29.679 
21:25	47.3	47.3	47.3	59	33.7	3	7	248	0.00	29.679 
21:30	46.8	45.2	46.8	61	34.1	4	7	270	0.00	29.686 
21:35	46.5	44.8	46.5	64	35.0	4	9	248	0.01	29.686 
21:40	46.1	44.4	46.1	65	35.0	4	9	270	0.00	29.686 
21:45	45.7	45.7	45.7	68	35.8	2	6	270	0.00	29.678 
21:50	45.5	45.5	45.5	67	35.2	2	5	270	0.00	29.678 
21:55	45.7	45.7	45.7	68	35.8	1	4	248	0.00	29.678 
22:00	45.7	45.7	45.7	70	36.5	1	3	248	0.01	29.680 
22:05	45.4	45.4	45.4	71	36.6	2	6	248	0.00	29.680 
22:10	45.1	45.1	45.1	71	36.3	1	4	248	0.00	29.680 
22:15	45.1	45.1	45.1	71	36.3	1	3	248	0.00	29.680 
22:20	45.2	45.2	45.2	70	36.0	1	3	248	0.00	29.680 
22:25	45.4	45.4	45.4	69	35.8	1	3	248	0.00	29.680 
22:30	45.5	45.5	45.5	69	35.9	0	1	248	0.00	29.679 
22:35	45.5	45.5	45.5	69	35.9	1	5	248	0.00	29.679 
22:40	45.8	45.8	45.8	66	35.1	3	5	270	0.00	29.679 
22:45	46.0	46.0	46.0	66	35.3	1	3	270	0.00	29.679 
22:50	46.0	46.0	46.0	67	35.7	1	2	270	0.00	29.679 
22:55	45.7	45.7	45.7	65	34.6	1	4	270	0.00	29.679 
23:00	45.2	45.2	45.2	62	33.0	0	2	315	0.00	29.687 
23:05	45.1	45.1	45.1	61	32.5	1	2	315	0.00	29.687 
23:10	44.8	44.8	44.8	61	32.2	0	2	315	0.00	29.687 
23:15	44.6	44.6	44.6	59	31.2	1	2	315	0.00	29.692 
23:20	44.5	44.5	44.5	59	31.1	0	1	315	0.00	29.692 
23:25	44.2	44.2	44.2	59	30.8	0	2	315	0.00	29.692 
23:30	44.1	44.1	44.1	59	30.7	0	1	315	0.00	29.691 
23:35	43.9	43.9	43.9	59	30.5	0	1	315	0.00	29.691 
23:40	43.8	43.8	43.8	58	30.0	0	1	315	0.00	29.691 
23:45	43.5	43.5	43.5	57	29.3	0	2	315	0.00	29.683 
23:50	43.5	43.5	43.5	57	29.3	0	2	315	0.00	29.683 
23:55	43.3	43.3	43.3	56	28.7	1	3	315	0.00	29.683 

CoCoRaHS
IN-AL-39
A2 Web Hosting
Creative Commons License
GoDaddy
search engine by freefind advanced

loaded 2018-11-20 02:43:26 • last modified 2010-11-18 10:43:29
Privacy PolicyDisclaimer
• wx.awcolley.com is powered by PmWiki v.2002016 •
• all content (unless otherwise noted) © 2018 A W Colley